sensor_id;sensor_type;location;lat;lon;timestamp;P1;durP1;ratioP1;P2;durP2;ratioP2
38615;SDS011;24370;51.986;4.666;2024-02-04T00:00:26;28.97;;;7.50;;
38615;SDS011;24370;51.986;4.666;2024-02-04T00:02:51;28.90;;;7.03;;
38615;SDS011;24370;51.986;4.666;2024-02-04T00:05:17;14.93;;;5.80;;
38615;SDS011;24370;51.986;4.666;2024-02-04T00:07:43;17.57;;;6.17;;
38615;SDS011;24370;51.986;4.666;2024-02-04T00:10:09;24.70;;;6.83;;
38615;SDS011;24370;51.986;4.666;2024-02-04T00:12:34;17.17;;;6.00;;
38615;SDS011;24370;51.986;4.666;2024-02-04T00:15:00;19.57;;;6.90;;
38615;SDS011;24370;51.986;4.666;2024-02-04T00:17:25;21.30;;;6.57;;
38615;SDS011;24370;51.986;4.666;2024-02-04T00:19:55;18.93;;;6.50;;
38615;SDS011;24370;51.986;4.666;2024-02-04T00:22:21;21.27;;;6.47;;
38615;SDS011;24370;51.986;4.666;2024-02-04T00:24:47;28.60;;;7.07;;
38615;SDS011;24370;51.986;4.666;2024-02-04T00:27:12;20.73;;;5.27;;
38615;SDS011;24370;51.986;4.666;2024-02-04T00:29:37;27.37;;;7.90;;
38615;SDS011;24370;51.986;4.666;2024-02-04T00:32:03;12.97;;;5.43;;
38615;SDS011;24370;51.986;4.666;2024-02-04T00:34:28;15.10;;;6.23;;
38615;SDS011;24370;51.986;4.666;2024-02-04T00:36:54;21.10;;;6.63;;
38615;SDS011;24370;51.986;4.666;2024-02-04T00:39:19;16.97;;;6.57;;
38615;SDS011;24370;51.986;4.666;2024-02-04T00:41:45;20.83;;;5.90;;
38615;SDS011;24370;51.986;4.666;2024-02-04T00:44:10;21.63;;;7.00;;
38615;SDS011;24370;51.986;4.666;2024-02-04T00:46:36;19.83;;;6.43;;
38615;SDS011;24370;51.986;4.666;2024-02-04T00:49:01;15.00;;;6.53;;
38615;SDS011;24370;51.986;4.666;2024-02-04T00:51:26;23.80;;;6.40;;
38615;SDS011;24370;51.986;4.666;2024-02-04T00:53:52;16.93;;;6.07;;
38615;SDS011;24370;51.986;4.666;2024-02-04T00:56:18;15.33;;;6.33;;
38615;SDS011;24370;51.986;4.666;2024-02-04T00:58:43;23.07;;;7.27;;
38615;SDS011;24370;51.986;4.666;2024-02-04T01:01:08;24.03;;;6.60;;
38615;SDS011;24370;51.986;4.666;2024-02-04T01:03:34;22.17;;;6.93;;
38615;SDS011;24370;51.986;4.666;2024-02-04T01:05:59;24.70;;;7.33;;
38615;SDS011;24370;51.986;4.666;2024-02-04T01:08:25;22.50;;;7.27;;
38615;SDS011;24370;51.986;4.666;2024-02-04T01:10:50;19.47;;;7.73;;
38615;SDS011;24370;51.986;4.666;2024-02-04T01:13:18;16.13;;;7.00;;
38615;SDS011;24370;51.986;4.666;2024-02-04T01:15:44;26.57;;;8.23;;
38615;SDS011;24370;51.986;4.666;2024-02-04T01:18:09;24.07;;;6.83;;
38615;SDS011;24370;51.986;4.666;2024-02-04T01:20:35;19.00;;;7.03;;
38615;SDS011;24370;51.986;4.666;2024-02-04T01:23:00;20.47;;;7.20;;
38615;SDS011;24370;51.986;4.666;2024-02-04T01:25:26;24.17;;;7.03;;
38615;SDS011;24370;51.986;4.666;2024-02-04T01:27:51;19.50;;;6.87;;
38615;SDS011;24370;51.986;4.666;2024-02-04T01:30:16;21.63;;;7.87;;
38615;SDS011;24370;51.986;4.666;2024-02-04T01:32:42;23.13;;;7.30;;
38615;SDS011;24370;51.986;4.666;2024-02-04T01:35:07;23.33;;;6.73;;
38615;SDS011;24370;51.986;4.666;2024-02-04T01:37:33;11.93;;;6.27;;
38615;SDS011;24370;51.986;4.666;2024-02-04T01:39:58;15.70;;;6.37;;
38615;SDS011;24370;51.986;4.666;2024-02-04T01:42:24;26.43;;;6.77;;
38615;SDS011;24370;51.986;4.666;2024-02-04T01:44:49;19.07;;;6.43;;
38615;SDS011;24370;51.986;4.666;2024-02-04T01:47:15;23.87;;;6.63;;
38615;SDS011;24370;51.986;4.666;2024-02-04T01:49:40;20.37;;;6.20;;
38615;SDS011;24370;51.986;4.666;2024-02-04T01:52:06;19.20;;;6.50;;
38615;SDS011;24370;51.986;4.666;2024-02-04T01:54:33;17.83;;;6.43;;
38615;SDS011;24370;51.986;4.666;2024-02-04T01:56:59;14.93;;;6.70;;
38615;SDS011;24370;51.986;4.666;2024-02-04T01:59:29;19.87;;;6.13;;
38615;SDS011;24370;51.986;4.666;2024-02-04T02:01:59;17.30;;;6.87;;
38615;SDS011;24370;51.986;4.666;2024-02-04T02:04:25;19.33;;;7.77;;
38615;SDS011;24370;51.986;4.666;2024-02-04T02:06:52;17.53;;;6.70;;
38615;SDS011;24370;51.986;4.666;2024-02-04T02:09:20;14.67;;;6.43;;
38615;SDS011;24370;51.986;4.666;2024-02-04T02:11:51;18.37;;;6.77;;
38615;SDS011;24370;51.986;4.666;2024-02-04T02:14:24;15.03;;;6.17;;
38615;SDS011;24370;51.986;4.666;2024-02-04T02:16:53;15.37;;;6.97;;
38615;SDS011;24370;51.986;4.666;2024-02-04T02:19:35;20.03;;;6.57;;
38615;SDS011;24370;51.986;4.666;2024-02-04T02:25:16;18.07;;;5.80;;
38615;SDS011;24370;51.986;4.666;2024-02-04T02:27:48;16.97;;;5.73;;
38615;SDS011;24370;51.986;4.666;2024-02-04T02:30:15;25.87;;;5.50;;
38615;SDS011;24370;51.986;4.666;2024-02-04T02:32:42;15.83;;;6.07;;
38615;SDS011;24370;51.986;4.666;2024-02-04T02:35:14;16.00;;;5.23;;
38615;SDS011;24370;51.986;4.666;2024-02-04T02:37:51;14.63;;;5.40;;
38615;SDS011;24370;51.986;4.666;2024-02-04T02:40:40;14.77;;;4.73;;
38615;SDS011;24370;51.986;4.666;2024-02-04T02:43:10;11.57;;;4.72;;
38615;SDS011;24370;51.986;4.666;2024-02-04T02:45:38;23.97;;;5.30;;
38615;SDS011;24370;51.986;4.666;2024-02-04T02:48:06;13.03;;;4.93;;
38615;SDS011;24370;51.986;4.666;2024-02-04T02:50:33;12.50;;;4.93;;
38615;SDS011;24370;51.986;4.666;2024-02-04T02:52:59;15.33;;;4.83;;
38615;SDS011;24370;51.986;4.666;2024-02-04T02:55:24;15.57;;;5.83;;
38615;SDS011;24370;51.986;4.666;2024-02-04T02:57:50;14.50;;;5.83;;
38615;SDS011;24370;51.986;4.666;2024-02-04T03:00:15;11.40;;;4.87;;
38615;SDS011;24370;51.986;4.666;2024-02-04T03:02:41;19.43;;;5.23;;
38615;SDS011;24370;51.986;4.666;2024-02-04T03:05:06;12.47;;;5.40;;
38615;SDS011;24370;51.986;4.666;2024-02-04T03:07:32;12.83;;;4.90;;
38615;SDS011;24370;51.986;4.666;2024-02-04T03:09:57;11.90;;;5.17;;
38615;SDS011;24370;51.986;4.666;2024-02-04T03:12:22;22.47;;;5.40;;
38615;SDS011;24370;51.986;4.666;2024-02-04T03:14:48;20.63;;;5.03;;
38615;SDS011;24370;51.986;4.666;2024-02-04T03:17:13;12.03;;;5.67;;
38615;SDS011;24370;51.986;4.666;2024-02-04T03:19:39;15.20;;;6.53;;
38615;SDS011;24370;51.986;4.666;2024-02-04T03:22:04;12.67;;;6.87;;
38615;SDS011;24370;51.986;4.666;2024-02-04T03:24:29;19.40;;;7.47;;
38615;SDS011;24370;51.986;4.666;2024-02-04T03:26:55;16.20;;;5.90;;
38615;SDS011;24370;51.986;4.666;2024-02-04T03:29:20;16.43;;;6.37;;
38615;SDS011;24370;51.986;4.666;2024-02-04T03:31:45;21.97;;;8.33;;
38615;SDS011;24370;51.986;4.666;2024-02-04T03:34:11;18.13;;;6.13;;
38615;SDS011;24370;51.986;4.666;2024-02-04T03:36:37;16.87;;;5.20;;
38615;SDS011;24370;51.986;4.666;2024-02-04T03:39:03;11.10;;;5.03;;
38615;SDS011;24370;51.986;4.666;2024-02-04T03:41:31;13.43;;;4.43;;
38615;SDS011;24370;51.986;4.666;2024-02-04T03:43:57;13.17;;;4.63;;
38615;SDS011;24370;51.986;4.666;2024-02-04T03:46:22;16.43;;;4.90;;
38615;SDS011;24370;51.986;4.666;2024-02-04T03:48:48;12.80;;;4.37;;
38615;SDS011;24370;51.986;4.666;2024-02-04T03:51:20;11.50;;;4.40;;
38615;SDS011;24370;51.986;4.666;2024-02-04T03:53:45;18.87;;;5.13;;
38615;SDS011;24370;51.986;4.666;2024-02-04T03:56:12;22.43;;;5.30;;
38615;SDS011;24370;51.986;4.666;2024-02-04T03:58:37;15.43;;;4.90;;
38615;SDS011;24370;51.986;4.666;2024-02-04T04:01:03;12.10;;;4.53;;
38615;SDS011;24370;51.986;4.666;2024-02-04T04:03:31;16.20;;;7.47;;
38615;SDS011;24370;51.986;4.666;2024-02-04T04:05:57;15.63;;;6.57;;
38615;SDS011;24370;51.986;4.666;2024-02-04T04:08:22;16.03;;;7.33;;
38615;SDS011;24370;51.986;4.666;2024-02-04T04:10:47;18.17;;;7.60;;
38615;SDS011;24370;51.986;4.666;2024-02-04T04:13:13;21.77;;;7.00;;
38615;SDS011;24370;51.986;4.666;2024-02-04T04:15:38;16.57;;;6.30;;
38615;SDS011;24370;51.986;4.666;2024-02-04T04:18:04;17.30;;;6.30;;
38615;SDS011;24370;51.986;4.666;2024-02-04T04:20:30;15.83;;;5.83;;
38615;SDS011;24370;51.986;4.666;2024-02-04T04:22:55;13.73;;;6.13;;
38615;SDS011;24370;51.986;4.666;2024-02-04T04:25:21;17.90;;;6.77;;
38615;SDS011;24370;51.986;4.666;2024-02-04T04:27:46;14.60;;;6.93;;
38615;SDS011;24370;51.986;4.666;2024-02-04T04:30:11;15.83;;;5.77;;
38615;SDS011;24370;51.986;4.666;2024-02-04T04:32:37;16.83;;;5.87;;
38615;SDS011;24370;51.986;4.666;2024-02-04T04:35:03;13.50;;;6.97;;
38615;SDS011;24370;51.986;4.666;2024-02-04T04:37:31;19.00;;;7.07;;
38615;SDS011;24370;51.986;4.666;2024-02-04T04:39:56;19.83;;;5.77;;
38615;SDS011;24370;51.986;4.666;2024-02-04T04:42:22;18.10;;;6.13;;
38615;SDS011;24370;51.986;4.666;2024-02-04T04:44:48;23.90;;;7.17;;
38615;SDS011;24370;51.986;4.666;2024-02-04T04:47:14;22.97;;;7.67;;
38615;SDS011;24370;51.986;4.666;2024-02-04T04:49:40;15.80;;;6.13;;
38615;SDS011;24370;51.986;4.666;2024-02-04T04:52:05;15.00;;;6.40;;
38615;SDS011;24370;51.986;4.666;2024-02-04T04:54:31;18.50;;;7.60;;
38615;SDS011;24370;51.986;4.666;2024-02-04T04:56:56;13.53;;;6.87;;
38615;SDS011;24370;51.986;4.666;2024-02-04T04:59:21;23.53;;;7.03;;
38615;SDS011;24370;51.986;4.666;2024-02-04T05:01:50;17.30;;;6.60;;
38615;SDS011;24370;51.986;4.666;2024-02-04T05:04:16;20.33;;;8.90;;
38615;SDS011;24370;51.986;4.666;2024-02-04T05:06:41;18.90;;;8.10;;
38615;SDS011;24370;51.986;4.666;2024-02-04T05:09:07;16.80;;;8.23;;
38615;SDS011;24370;51.986;4.666;2024-02-04T05:11:32;26.63;;;8.00;;
38615;SDS011;24370;51.986;4.666;2024-02-04T05:13:58;18.40;;;7.47;;
38615;SDS011;24370;51.986;4.666;2024-02-04T05:16:23;17.17;;;6.90;;
38615;SDS011;24370;51.986;4.666;2024-02-04T05:18:48;33.50;;;7.97;;
38615;SDS011;24370;51.986;4.666;2024-02-04T05:21:14;17.53;;;7.40;;
38615;SDS011;24370;51.986;4.666;2024-02-04T05:23:39;15.73;;;5.10;;
38615;SDS011;24370;51.986;4.666;2024-02-04T05:26:04;23.67;;;7.27;;
38615;SDS011;24370;51.986;4.666;2024-02-04T05:28:30;22.73;;;7.07;;
38615;SDS011;24370;51.986;4.666;2024-02-04T05:30:56;18.47;;;7.00;;
38615;SDS011;24370;51.986;4.666;2024-02-04T05:33:21;11.33;;;6.40;;
38615;SDS011;24370;51.986;4.666;2024-02-04T05:35:47;18.93;;;6.57;;
38615;SDS011;24370;51.986;4.666;2024-02-04T05:38:12;14.57;;;5.53;;
38615;SDS011;24370;51.986;4.666;2024-02-04T05:40:37;14.93;;;4.73;;
38615;SDS011;24370;51.986;4.666;2024-02-04T05:43:03;11.17;;;5.10;;
38615;SDS011;24370;51.986;4.666;2024-02-04T05:45:35;13.70;;;5.20;;
38615;SDS011;24370;51.986;4.666;2024-02-04T05:48:00;10.43;;;3.30;;
38615;SDS011;24370;51.986;4.666;2024-02-04T05:50:25;14.80;;;3.90;;
38615;SDS011;24370;51.986;4.666;2024-02-04T05:52:51;15.30;;;3.73;;
38615;SDS011;24370;51.986;4.666;2024-02-04T05:55:16;11.43;;;2.83;;
38615;SDS011;24370;51.986;4.666;2024-02-04T05:57:42;5.47;;;3.23;;
38615;SDS011;24370;51.986;4.666;2024-02-04T06:00:07;8.87;;;3.57;;
38615;SDS011;24370;51.986;4.666;2024-02-04T06:02:35;9.80;;;3.10;;
38615;SDS011;24370;51.986;4.666;2024-02-04T06:05:00;8.77;;;2.90;;
38615;SDS011;24370;51.986;4.666;2024-02-04T06:07:26;10.23;;;2.70;;
38615;SDS011;24370;51.986;4.666;2024-02-04T06:09:51;13.83;;;3.57;;
38615;SDS011;24370;51.986;4.666;2024-02-04T06:12:17;14.60;;;2.87;;
38615;SDS011;24370;51.986;4.666;2024-02-04T06:14:42;8.67;;;3.00;;
38615;SDS011;24370;51.986;4.666;2024-02-04T06:17:08;12.43;;;3.50;;
38615;SDS011;24370;51.986;4.666;2024-02-04T06:19:36;7.60;;;3.40;;
38615;SDS011;24370;51.986;4.666;2024-02-04T06:22:02;15.60;;;3.70;;
38615;SDS011;24370;51.986;4.666;2024-02-04T06:24:27;12.00;;;4.77;;
38615;SDS011;24370;51.986;4.666;2024-02-04T06:26:52;8.30;;;3.63;;
38615;SDS011;24370;51.986;4.666;2024-02-04T06:29:18;12.97;;;3.83;;
38615;SDS011;24370;51.986;4.666;2024-02-04T06:31:44;12.23;;;3.90;;
38615;SDS011;24370;51.986;4.666;2024-02-04T06:34:10;10.07;;;4.47;;
38615;SDS011;24370;51.986;4.666;2024-02-04T06:36:36;9.80;;;4.07;;
38615;SDS011;24370;51.986;4.666;2024-02-04T06:39:01;11.97;;;3.73;;
38615;SDS011;24370;51.986;4.666;2024-02-04T06:41:26;9.73;;;3.97;;
38615;SDS011;24370;51.986;4.666;2024-02-04T06:43:52;12.00;;;3.90;;
38615;SDS011;24370;51.986;4.666;2024-02-04T06:46:24;20.27;;;3.70;;
38615;SDS011;24370;51.986;4.666;2024-02-04T06:48:51;7.77;;;3.27;;
38615;SDS011;24370;51.986;4.666;2024-02-04T06:51:16;7.13;;;3.03;;
38615;SDS011;24370;51.986;4.666;2024-02-04T06:53:41;11.60;;;3.83;;
38615;SDS011;24370;51.986;4.666;2024-02-04T06:56:07;13.80;;;4.10;;
38615;SDS011;24370;51.986;4.666;2024-02-04T06:58:33;14.90;;;3.23;;
38615;SDS011;24370;51.986;4.666;2024-02-04T07:01:01;4.77;;;2.80;;
38615;SDS011;24370;51.986;4.666;2024-02-04T07:03:27;13.47;;;3.13;;
38615;SDS011;24370;51.986;4.666;2024-02-04T07:05:54;9.10;;;3.57;;
38615;SDS011;24370;51.986;4.666;2024-02-04T07:08:19;4.27;;;2.80;;
38615;SDS011;24370;51.986;4.666;2024-02-04T07:10:44;9.23;;;3.13;;
38615;SDS011;24370;51.986;4.666;2024-02-04T07:13:10;8.20;;;2.63;;
38615;SDS011;24370;51.986;4.666;2024-02-04T07:15:36;7.07;;;3.10;;
38615;SDS011;24370;51.986;4.666;2024-02-04T07:18:02;12.17;;;3.80;;
38615;SDS011;24370;51.986;4.666;2024-02-04T07:20:27;8.00;;;3.07;;
38615;SDS011;24370;51.986;4.666;2024-02-04T07:22:53;7.40;;;3.10;;
38615;SDS011;24370;51.986;4.666;2024-02-04T07:25:18;11.93;;;5.03;;
38615;SDS011;24370;51.986;4.666;2024-02-04T07:27:43;15.73;;;4.10;;
38615;SDS011;24370;51.986;4.666;2024-02-04T07:30:09;9.10;;;3.77;;
38615;SDS011;24370;51.986;4.666;2024-02-04T07:32:35;9.33;;;3.80;;
38615;SDS011;24370;51.986;4.666;2024-02-04T07:35:02;8.67;;;3.27;;
38615;SDS011;24370;51.986;4.666;2024-02-04T07:37:27;9.07;;;3.57;;
38615;SDS011;24370;51.986;4.666;2024-02-04T07:39:54;8.23;;;3.67;;
38615;SDS011;24370;51.986;4.666;2024-02-04T07:42:19;10.23;;;3.10;;
38615;SDS011;24370;51.986;4.666;2024-02-04T07:44:44;17.73;;;3.53;;
38615;SDS011;24370;51.986;4.666;2024-02-04T07:47:10;14.10;;;2.87;;
38615;SDS011;24370;51.986;4.666;2024-02-04T07:49:36;8.03;;;3.50;;
38615;SDS011;24370;51.986;4.666;2024-02-04T07:52:01;11.33;;;2.60;;
38615;SDS011;24370;51.986;4.666;2024-02-04T07:54:27;6.17;;;2.20;;
38615;SDS011;24370;51.986;4.666;2024-02-04T07:56:52;10.40;;;2.73;;
38615;SDS011;24370;51.986;4.666;2024-02-04T07:59:17;4.57;;;2.13;;
38615;SDS011;24370;51.986;4.666;2024-02-04T08:01:43;9.93;;;2.87;;
38615;SDS011;24370;51.986;4.666;2024-02-04T08:04:08;4.53;;;2.80;;
38615;SDS011;24370;51.986;4.666;2024-02-04T08:06:36;5.50;;;2.80;;
38615;SDS011;24370;51.986;4.666;2024-02-04T08:09:02;8.43;;;2.57;;
38615;SDS011;24370;51.986;4.666;2024-02-04T08:11:29;10.03;;;2.70;;
38615;SDS011;24370;51.986;4.666;2024-02-04T08:13:55;5.83;;;3.03;;
38615;SDS011;24370;51.986;4.666;2024-02-04T08:16:20;12.67;;;2.60;;
38615;SDS011;24370;51.986;4.666;2024-02-04T08:18:46;4.37;;;2.10;;
38615;SDS011;24370;51.986;4.666;2024-02-04T08:21:12;8.57;;;1.97;;
38615;SDS011;24370;51.986;4.666;2024-02-04T08:23:37;4.03;;;1.63;;
38615;SDS011;24370;51.986;4.666;2024-02-04T08:26:04;5.43;;;2.17;;
38615;SDS011;24370;51.986;4.666;2024-02-04T08:28:30;7.57;;;2.27;;
38615;SDS011;24370;51.986;4.666;2024-02-04T08:30:55;12.00;;;2.00;;
38615;SDS011;24370;51.986;4.666;2024-02-04T08:33:21;4.30;;;1.60;;
38615;SDS011;24370;51.986;4.666;2024-02-04T08:35:47;7.93;;;1.90;;
38615;SDS011;24370;51.986;4.666;2024-02-04T08:38:13;1.60;;;1.43;;
38615;SDS011;24370;51.986;4.666;2024-02-04T08:40:39;5.30;;;1.67;;
38615;SDS011;24370;51.986;4.666;2024-02-04T08:43:04;6.27;;;1.63;;
38615;SDS011;24370;51.986;4.666;2024-02-04T08:45:29;8.57;;;1.73;;
38615;SDS011;24370;51.986;4.666;2024-02-04T08:47:55;7.73;;;2.37;;
38615;SDS011;24370;51.986;4.666;2024-02-04T08:50:20;7.53;;;1.97;;
38615;SDS011;24370;51.986;4.666;2024-02-04T08:52:45;2.37;;;1.10;;
38615;SDS011;24370;51.986;4.666;2024-02-04T08:55:11;11.40;;;1.50;;
38615;SDS011;24370;51.986;4.666;2024-02-04T08:57:36;2.33;;;1.17;;
38615;SDS011;24370;51.986;4.666;2024-02-04T09:00:02;3.80;;;1.30;;
38615;SDS011;24370;51.986;4.666;2024-02-04T09:02:30;2.47;;;1.10;;
38615;SDS011;24370;51.986;4.666;2024-02-04T09:04:56;9.40;;;1.43;;
38615;SDS011;24370;51.986;4.666;2024-02-04T09:07:21;3.13;;;1.30;;
38615;SDS011;24370;51.986;4.666;2024-02-04T09:09:46;6.80;;;1.20;;
38615;SDS011;24370;51.986;4.666;2024-02-04T09:12:12;2.47;;;1.17;;
38615;SDS011;24370;51.986;4.666;2024-02-04T09:14:37;1.50;;;1.10;;
38615;SDS011;24370;51.986;4.666;2024-02-04T09:17:03;5.13;;;1.30;;
38615;SDS011;24370;51.986;4.666;2024-02-04T09:19:30;4.57;;;0.87;;
38615;SDS011;24370;51.986;4.666;2024-02-04T09:21:56;8.77;;;0.93;;
38615;SDS011;24370;51.986;4.666;2024-02-04T09:24:21;5.70;;;1.17;;
38615;SDS011;24370;51.986;4.666;2024-02-04T09:26:47;4.53;;;0.90;;
38615;SDS011;24370;51.986;4.666;2024-02-04T09:29:12;5.03;;;1.17;;
38615;SDS011;24370;51.986;4.666;2024-02-04T09:31:37;4.00;;;1.13;;
38615;SDS011;24370;51.986;4.666;2024-02-04T09:34:03;4.00;;;0.70;;
38615;SDS011;24370;51.986;4.666;2024-02-04T09:36:29;3.37;;;0.80;;
38615;SDS011;24370;51.986;4.666;2024-02-04T09:38:55;6.10;;;0.80;;
38615;SDS011;24370;51.986;4.666;2024-02-04T09:41:21;2.23;;;0.57;;
38615;SDS011;24370;51.986;4.666;2024-02-04T09:43:48;1.13;;;1.03;;
38615;SDS011;24370;51.986;4.666;2024-02-04T09:46:15;3.17;;;0.90;;
38615;SDS011;24370;51.986;4.666;2024-02-04T09:48:41;1.30;;;0.80;;
38615;SDS011;24370;51.986;4.666;2024-02-04T09:51:09;3.60;;;0.90;;
38615;SDS011;24370;51.986;4.666;2024-02-04T09:53:35;2.13;;;1.67;;
38615;SDS011;24370;51.986;4.666;2024-02-04T09:56:02;3.30;;;1.50;;
38615;SDS011;24370;51.986;4.666;2024-02-04T09:58:29;5.80;;;2.07;;
38615;SDS011;24370;51.986;4.666;2024-02-04T10:00:54;10.60;;;3.07;;
38615;SDS011;24370;51.986;4.666;2024-02-04T10:03:21;3.27;;;1.67;;
38615;SDS011;24370;51.986;4.666;2024-02-04T10:05:47;3.97;;;1.90;;
38615;SDS011;24370;51.986;4.666;2024-02-04T10:08:12;4.80;;;1.80;;
38615;SDS011;24370;51.986;4.666;2024-02-04T10:10:39;6.47;;;1.70;;
38615;SDS011;24370;51.986;4.666;2024-02-04T10:13:06;3.23;;;1.47;;
38615;SDS011;24370;51.986;4.666;2024-02-04T10:15:32;3.40;;;1.07;;
38615;SDS011;24370;51.986;4.666;2024-02-04T10:17:58;4.70;;;1.47;;
38615;SDS011;24370;51.986;4.666;2024-02-04T10:20:23;5.50;;;1.53;;
38615;SDS011;24370;51.986;4.666;2024-02-04T10:22:48;5.27;;;1.97;;
38615;SDS011;24370;51.986;4.666;2024-02-04T10:25:14;4.50;;;1.47;;
38615;SDS011;24370;51.986;4.666;2024-02-04T10:27:41;3.57;;;1.80;;
38615;SDS011;24370;51.986;4.666;2024-02-04T10:30:07;3.77;;;1.43;;
38615;SDS011;24370;51.986;4.666;2024-02-04T10:32:33;1.43;;;0.80;;
38615;SDS011;24370;51.986;4.666;2024-02-04T10:34:59;5.00;;;2.73;;
38615;SDS011;24370;51.986;4.666;2024-02-04T10:37:26;3.20;;;1.70;;
38615;SDS011;24370;51.986;4.666;2024-02-04T10:39:51;1.90;;;1.43;;
38615;SDS011;24370;51.986;4.666;2024-02-04T10:42:17;4.83;;;1.13;;
38615;SDS011;24370;51.986;4.666;2024-02-04T10:44:45;4.57;;;0.93;;
38615;SDS011;24370;51.986;4.666;2024-02-04T10:47:15;2.83;;;0.83;;
38615;SDS011;24370;51.986;4.666;2024-02-04T10:49:43;2.60;;;0.90;;
38615;SDS011;24370;51.986;4.666;2024-02-04T10:52:14;2.85;;;0.90;;
38615;SDS011;24370;51.986;4.666;2024-02-04T10:54:42;2.13;;;0.90;;
38615;SDS011;24370;51.986;4.666;2024-02-04T10:57:10;10.53;;;1.40;;
38615;SDS011;24370;51.986;4.666;2024-02-04T10:59:40;4.57;;;2.23;;
38615;SDS011;24370;51.986;4.666;2024-02-04T11:02:07;4.70;;;1.27;;
38615;SDS011;24370;51.986;4.666;2024-02-04T11:04:34;4.90;;;1.43;;
38615;SDS011;24370;51.986;4.666;2024-02-04T11:07:01;3.40;;;1.00;;
38615;SDS011;24370;51.986;4.666;2024-02-04T11:09:29;5.53;;;1.30;;
38615;SDS011;24370;51.986;4.666;2024-02-04T11:11:55;9.33;;;1.40;;
38615;SDS011;24370;51.986;4.666;2024-02-04T11:14:23;5.50;;;1.23;;
38615;SDS011;24370;51.986;4.666;2024-02-04T11:16:59;6.80;;;1.40;;
38615;SDS011;24370;51.986;4.666;2024-02-04T11:22:06;4.50;;;1.33;;
38615;SDS011;24370;51.986;4.666;2024-02-04T11:27:29;6.87;;;2.03;;
38615;SDS011;24370;51.986;4.666;2024-02-04T11:29:55;5.50;;;1.53;;
38615;SDS011;24370;51.986;4.666;2024-02-04T11:32:21;5.30;;;1.37;;
38615;SDS011;24370;51.986;4.666;2024-02-04T11:34:46;19.47;;;4.47;;
38615;SDS011;24370;51.986;4.666;2024-02-04T11:37:15;8.80;;;1.37;;
38615;SDS011;24370;51.986;4.666;2024-02-04T11:39:50;6.70;;;1.10;;
38615;SDS011;24370;51.986;4.666;2024-02-04T11:42:16;7.03;;;1.63;;
38615;SDS011;24370;51.986;4.666;2024-02-04T11:44:42;11.03;;;1.63;;
38615;SDS011;24370;51.986;4.666;2024-02-04T11:47:08;7.30;;;1.97;;
38615;SDS011;24370;51.986;4.666;2024-02-04T11:49:33;9.10;;;1.53;;
38615;SDS011;24370;51.986;4.666;2024-02-04T11:51:59;7.57;;;1.40;;
38615;SDS011;24370;51.986;4.666;2024-02-04T11:54:25;6.30;;;0.70;;
38615;SDS011;24370;51.986;4.666;2024-02-04T11:56:51;2.63;;;1.03;;
38615;SDS011;24370;51.986;4.666;2024-02-04T11:59:18;4.77;;;1.20;;
38615;SDS011;24370;51.986;4.666;2024-02-04T12:01:47;4.03;;;2.10;;
38615;SDS011;24370;51.986;4.666;2024-02-04T12:04:13;5.20;;;1.17;;
38615;SDS011;24370;51.986;4.666;2024-02-04T12:06:40;3.43;;;1.20;;
38615;SDS011;24370;51.986;4.666;2024-02-04T12:09:07;8.57;;;2.43;;
38615;SDS011;24370;51.986;4.666;2024-02-04T12:11:35;4.90;;;1.40;;
38615;SDS011;24370;51.986;4.666;2024-02-04T12:14:01;2.87;;;1.47;;
38615;SDS011;24370;51.986;4.666;2024-02-04T12:16:30;8.60;;;1.80;;
38615;SDS011;24370;51.986;4.666;2024-02-04T12:18:57;1.40;;;1.20;;
38615;SDS011;24370;51.986;4.666;2024-02-04T12:21:23;5.40;;;1.52;;
38615;SDS011;24370;51.986;4.666;2024-02-04T12:23:48;4.85;;;1.17;;
38615;SDS011;24370;51.986;4.666;2024-02-04T12:26:14;5.57;;;1.37;;
38615;SDS011;24370;51.986;4.666;2024-02-04T12:28:39;10.40;;;2.40;;
38615;SDS011;24370;51.986;4.666;2024-02-04T12:31:04;2.80;;;0.90;;
38615;SDS011;24370;51.986;4.666;2024-02-04T12:33:30;10.93;;;1.97;;
38615;SDS011;24370;51.986;4.666;2024-02-04T12:35:55;8.90;;;1.73;;
38615;SDS011;24370;51.986;4.666;2024-02-04T12:38:23;8.13;;;2.57;;
38615;SDS011;24370;51.986;4.666;2024-02-04T12:40:48;8.10;;;2.93;;
38615;SDS011;24370;51.986;4.666;2024-02-04T12:43:13;8.23;;;2.22;;
38615;SDS011;24370;51.986;4.666;2024-02-04T12:45:39;9.43;;;1.67;;
38615;SDS011;24370;51.986;4.666;2024-02-04T12:48:05;4.38;;;1.48;;
38615;SDS011;24370;51.986;4.666;2024-02-04T12:50:31;8.77;;;2.37;;
38615;SDS011;24370;51.986;4.666;2024-02-04T12:53:07;6.27;;;1.33;;
38615;SDS011;24370;51.986;4.666;2024-02-04T12:55:37;5.00;;;1.20;;
38615;SDS011;24370;51.986;4.666;2024-02-04T12:58:13;3.70;;;1.37;;
38615;SDS011;24370;51.986;4.666;2024-02-04T13:00:43;5.83;;;1.40;;
38615;SDS011;24370;51.986;4.666;2024-02-04T13:03:08;4.90;;;1.47;;
38615;SDS011;24370;51.986;4.666;2024-02-04T13:05:34;9.87;;;2.07;;
38615;SDS011;24370;51.986;4.666;2024-02-04T13:08:01;12.73;;;1.60;;
38615;SDS011;24370;51.986;4.666;2024-02-04T13:10:31;7.87;;;1.87;;
38615;SDS011;24370;51.986;4.666;2024-02-04T13:13:04;5.65;;;1.02;;
38615;SDS011;24370;51.986;4.666;2024-02-04T13:15:32;8.57;;;1.30;;
38615;SDS011;24370;51.986;4.666;2024-02-04T13:18:00;7.78;;;1.58;;
38615;SDS011;24370;51.986;4.666;2024-02-04T13:20:25;4.68;;;1.23;;
38615;SDS011;24370;51.986;4.666;2024-02-04T13:22:51;4.87;;;1.30;;
38615;SDS011;24370;51.986;4.666;2024-02-04T13:25:19;3.90;;;1.33;;
38615;SDS011;24370;51.986;4.666;2024-02-04T13:27:46;9.77;;;1.90;;
38615;SDS011;24370;51.986;4.666;2024-02-04T13:30:12;9.98;;;1.48;;
38615;SDS011;24370;51.986;4.666;2024-02-04T13:32:38;4.65;;;0.90;;
38615;SDS011;24370;51.986;4.666;2024-02-04T13:35:05;5.82;;;1.15;;
38615;SDS011;24370;51.986;4.666;2024-02-04T13:37:31;2.50;;;0.95;;
38615;SDS011;24370;51.986;4.666;2024-02-04T13:39:57;13.37;;;1.40;;
38615;SDS011;24370;51.986;4.666;2024-02-04T13:42:22;3.80;;;0.90;;
38615;SDS011;24370;51.986;4.666;2024-02-04T13:44:47;5.90;;;0.95;;
38615;SDS011;24370;51.986;4.666;2024-02-04T13:47:13;4.68;;;1.42;;
38615;SDS011;24370;51.986;4.666;2024-02-04T13:49:38;10.98;;;1.58;;
38615;SDS011;24370;51.986;4.666;2024-02-04T13:52:04;2.85;;;1.00;;
38615;SDS011;24370;51.986;4.666;2024-02-04T13:54:29;7.03;;;1.10;;
38615;SDS011;24370;51.986;4.666;2024-02-04T13:56:54;5.97;;;1.33;;
38615;SDS011;24370;51.986;4.666;2024-02-04T13:59:20;6.07;;;1.50;;
38615;SDS011;24370;51.986;4.666;2024-02-04T14:01:45;2.72;;;0.93;;
38615;SDS011;24370;51.986;4.666;2024-02-04T14:04:11;4.13;;;0.88;;
38615;SDS011;24370;51.986;4.666;2024-02-04T14:06:36;5.95;;;1.25;;
38615;SDS011;24370;51.986;4.666;2024-02-04T14:09:02;7.20;;;1.47;;
38615;SDS011;24370;51.986;4.666;2024-02-04T14:11:31;6.70;;;1.50;;
38615;SDS011;24370;51.986;4.666;2024-02-04T14:13:57;3.88;;;1.05;;
38615;SDS011;24370;51.986;4.666;2024-02-04T14:16:25;9.57;;;2.42;;
38615;SDS011;24370;51.986;4.666;2024-02-04T14:18:50;4.50;;;1.40;;
38615;SDS011;24370;51.986;4.666;2024-02-04T14:21:16;9.57;;;1.30;;
38615;SDS011;24370;51.986;4.666;2024-02-04T14:23:41;9.03;;;1.33;;
38615;SDS011;24370;51.986;4.666;2024-02-04T14:26:07;11.70;;;1.57;;
38615;SDS011;24370;51.986;4.666;2024-02-04T14:31:06;5.20;;;0.70;;
38615;SDS011;24370;51.986;4.666;2024-02-04T14:33:32;5.10;;;1.57;;
38615;SDS011;24370;51.986;4.666;2024-02-04T14:35:58;5.68;;;1.27;;
38615;SDS011;24370;51.986;4.666;2024-02-04T14:38:25;6.63;;;1.10;;
38615;SDS011;24370;51.986;4.666;2024-02-04T14:40:51;3.57;;;1.10;;
38615;SDS011;24370;51.986;4.666;2024-02-04T14:43:16;8.00;;;1.85;;
38615;SDS011;24370;51.986;4.666;2024-02-04T14:45:43;11.15;;;1.58;;